sensor_id;sensor_type;location;lat;lon;timestamp;P1;durP1;ratioP1;P2;durP2;ratioP2
42832;SDS011;64089;51.478;5.692;2024-03-06T00:01:42;27.83;;;13.35;;
42832;SDS011;64089;51.478;5.692;2024-03-06T00:04:08;28.33;;;13.85;;
42832;SDS011;64089;51.478;5.692;2024-03-06T00:06:34;36.80;;;13.68;;
42832;SDS011;64089;51.478;5.692;2024-03-06T00:08:59;26.50;;;12.43;;
42832;SDS011;64089;51.478;5.692;2024-03-06T00:11:27;25.30;;;12.95;;
42832;SDS011;64089;51.478;5.692;2024-03-06T00:13:53;27.35;;;13.05;;
42832;SDS011;64089;51.478;5.692;2024-03-06T00:16:19;27.85;;;13.68;;
42832;SDS011;64089;51.478;5.692;2024-03-06T00:18:45;24.98;;;12.45;;
42832;SDS011;64089;51.478;5.692;2024-03-06T00:21:11;30.45;;;13.63;;
42832;SDS011;64089;51.478;5.692;2024-03-06T00:23:37;24.80;;;12.93;;
42832;SDS011;64089;51.478;5.692;2024-03-06T00:26:04;24.90;;;11.52;;
42832;SDS011;64089;51.478;5.692;2024-03-06T00:28:29;22.30;;;12.02;;
42832;SDS011;64089;51.478;5.692;2024-03-06T00:30:55;25.15;;;11.75;;
42832;SDS011;64089;51.478;5.692;2024-03-06T00:33:21;28.92;;;13.00;;
42832;SDS011;64089;51.478;5.692;2024-03-06T00:35:47;27.60;;;13.68;;
42832;SDS011;64089;51.478;5.692;2024-03-06T00:38:13;25.98;;;13.48;;
42832;SDS011;64089;51.478;5.692;2024-03-06T00:40:38;24.25;;;12.45;;
42832;SDS011;64089;51.478;5.692;2024-03-06T00:43:04;27.02;;;12.82;;
42832;SDS011;64089;51.478;5.692;2024-03-06T00:45:31;24.23;;;12.32;;
42832;SDS011;64089;51.478;5.692;2024-03-06T00:47:56;28.05;;;12.95;;
42832;SDS011;64089;51.478;5.692;2024-03-06T00:50:22;25.13;;;12.27;;
42832;SDS011;64089;51.478;5.692;2024-03-06T00:52:48;26.80;;;12.95;;
42832;SDS011;64089;51.478;5.692;2024-03-06T00:55:14;24.85;;;12.02;;
42832;SDS011;64089;51.478;5.692;2024-03-06T00:57:39;29.08;;;13.05;;
42832;SDS011;64089;51.478;5.692;2024-03-06T01:00:05;26.02;;;12.18;;
42832;SDS011;64089;51.478;5.692;2024-03-06T01:02:35;23.33;;;11.55;;
42832;SDS011;64089;51.478;5.692;2024-03-06T01:05:05;23.23;;;12.15;;
42832;SDS011;64089;51.478;5.692;2024-03-06T01:07:32;26.65;;;12.75;;
42832;SDS011;64089;51.478;5.692;2024-03-06T01:09:58;22.65;;;12.57;;
42832;SDS011;64089;51.478;5.692;2024-03-06T01:12:24;22.00;;;11.90;;
42832;SDS011;64089;51.478;5.692;2024-03-06T01:14:50;24.25;;;12.48;;
42832;SDS011;64089;51.478;5.692;2024-03-06T01:17:16;28.85;;;12.90;;
42832;SDS011;64089;51.478;5.692;2024-03-06T01:19:42;24.95;;;12.77;;
42832;SDS011;64089;51.478;5.692;2024-03-06T01:22:11;23.15;;;11.75;;
42832;SDS011;64089;51.478;5.692;2024-03-06T01:24:40;24.05;;;11.65;;
42832;SDS011;64089;51.478;5.692;2024-03-06T01:27:05;27.73;;;12.43;;
42832;SDS011;64089;51.478;5.692;2024-03-06T01:29:31;31.88;;;14.13;;
42832;SDS011;64089;51.478;5.692;2024-03-06T01:31:58;26.20;;;12.70;;
42832;SDS011;64089;51.478;5.692;2024-03-06T01:34:24;24.20;;;12.05;;
42832;SDS011;64089;51.478;5.692;2024-03-06T01:36:50;28.73;;;12.98;;
42832;SDS011;64089;51.478;5.692;2024-03-06T01:39:17;24.05;;;12.30;;
42832;SDS011;64089;51.478;5.692;2024-03-06T01:41:46;23.10;;;12.43;;
42832;SDS011;64089;51.478;5.692;2024-03-06T01:44:12;28.17;;;13.75;;
42832;SDS011;64089;51.478;5.692;2024-03-06T01:46:38;26.50;;;11.82;;
42832;SDS011;64089;51.478;5.692;2024-03-06T01:49:04;29.70;;;14.02;;
42832;SDS011;64089;51.478;5.692;2024-03-06T01:51:31;31.52;;;14.95;;
42832;SDS011;64089;51.478;5.692;2024-03-06T01:53:57;26.85;;;13.30;;
42832;SDS011;64089;51.478;5.692;2024-03-06T01:56:25;29.40;;;13.65;;
42832;SDS011;64089;51.478;5.692;2024-03-06T01:58:51;33.75;;;14.38;;
42832;SDS011;64089;51.478;5.692;2024-03-06T02:01:19;27.85;;;14.13;;
42832;SDS011;64089;51.478;5.692;2024-03-06T02:03:46;33.95;;;14.10;;
42832;SDS011;64089;51.478;5.692;2024-03-06T02:06:13;26.92;;;12.05;;
42832;SDS011;64089;51.478;5.692;2024-03-06T02:08:40;31.17;;;14.30;;
42832;SDS011;64089;51.478;5.692;2024-03-06T02:11:06;28.52;;;13.13;;
42832;SDS011;64089;51.478;5.692;2024-03-06T02:13:32;27.27;;;13.23;;
42832;SDS011;64089;51.478;5.692;2024-03-06T02:15:58;27.50;;;12.98;;
42832;SDS011;64089;51.478;5.692;2024-03-06T02:18:25;34.03;;;14.68;;
42832;SDS011;64089;51.478;5.692;2024-03-06T02:20:50;29.58;;;12.95;;
42832;SDS011;64089;51.478;5.692;2024-03-06T02:23:16;30.92;;;13.05;;
42832;SDS011;64089;51.478;5.692;2024-03-06T02:25:45;33.75;;;13.50;;
42832;SDS011;64089;51.478;5.692;2024-03-06T02:28:12;35.05;;;14.98;;
42832;SDS011;64089;51.478;5.692;2024-03-06T02:30:38;34.17;;;13.45;;
42832;SDS011;64089;51.478;5.692;2024-03-06T02:33:04;31.77;;;14.10;;
42832;SDS011;64089;51.478;5.692;2024-03-06T02:35:32;38.75;;;14.25;;
42832;SDS011;64089;51.478;5.692;2024-03-06T02:37:59;37.40;;;15.25;;
42832;SDS011;64089;51.478;5.692;2024-03-06T02:40:26;29.00;;;14.82;;
42832;SDS011;64089;51.478;5.692;2024-03-06T02:42:51;34.25;;;13.98;;
42832;SDS011;64089;51.478;5.692;2024-03-06T02:45:17;34.38;;;15.18;;
42832;SDS011;64089;51.478;5.692;2024-03-06T02:47:44;33.67;;;14.63;;
42832;SDS011;64089;51.478;5.692;2024-03-06T02:50:10;33.33;;;14.00;;
42832;SDS011;64089;51.478;5.692;2024-03-06T02:52:35;29.10;;;14.60;;
42832;SDS011;64089;51.478;5.692;2024-03-06T02:55:01;28.10;;;13.38;;
42832;SDS011;64089;51.478;5.692;2024-03-06T02:57:27;25.90;;;13.15;;
42832;SDS011;64089;51.478;5.692;2024-03-06T02:59:56;34.65;;;15.48;;
42832;SDS011;64089;51.478;5.692;2024-03-06T03:02:22;31.42;;;14.27;;
42832;SDS011;64089;51.478;5.692;2024-03-06T03:04:49;30.42;;;12.98;;
42832;SDS011;64089;51.478;5.692;2024-03-06T03:07:15;28.88;;;12.88;;
42832;SDS011;64089;51.478;5.692;2024-03-06T03:09:40;30.23;;;13.35;;
42832;SDS011;64089;51.478;5.692;2024-03-06T03:12:06;40.80;;;15.25;;
42832;SDS011;64089;51.478;5.692;2024-03-06T03:14:32;44.42;;;16.17;;
42832;SDS011;64089;51.478;5.692;2024-03-06T03:16:58;29.23;;;14.07;;
42832;SDS011;64089;51.478;5.692;2024-03-06T03:19:25;29.95;;;14.27;;
42832;SDS011;64089;51.478;5.692;2024-03-06T03:21:51;33.20;;;14.10;;
42832;SDS011;64089;51.478;5.692;2024-03-06T03:24:16;32.25;;;14.38;;
42832;SDS011;64089;51.478;5.692;2024-03-06T03:26:45;38.00;;;14.40;;
42832;SDS011;64089;51.478;5.692;2024-03-06T03:29:11;29.25;;;14.73;;
42832;SDS011;64089;51.478;5.692;2024-03-06T03:31:36;29.73;;;13.45;;
42832;SDS011;64089;51.478;5.692;2024-03-06T03:34:04;28.98;;;13.55;;
42832;SDS011;64089;51.478;5.692;2024-03-06T03:36:30;32.65;;;15.48;;
42832;SDS011;64089;51.478;5.692;2024-03-06T03:38:56;32.60;;;15.55;;
42832;SDS011;64089;51.478;5.692;2024-03-06T03:41:21;36.92;;;15.75;;
42832;SDS011;64089;51.478;5.692;2024-03-06T03:43:47;41.67;;;16.23;;
42832;SDS011;64089;51.478;5.692;2024-03-06T03:46:14;40.95;;;15.68;;
42832;SDS011;64089;51.478;5.692;2024-03-06T03:48:39;43.95;;;16.63;;
42832;SDS011;64089;51.478;5.692;2024-03-06T03:51:05;36.10;;;15.13;;
42832;SDS011;64089;51.478;5.692;2024-03-06T03:53:35;37.70;;;15.20;;
42832;SDS011;64089;51.478;5.692;2024-03-06T03:56:00;39.58;;;15.70;;
42832;SDS011;64089;51.478;5.692;2024-03-06T03:58:26;34.03;;;14.68;;
42832;SDS011;64089;51.478;5.692;2024-03-06T04:00:52;40.63;;;17.40;;
42832;SDS011;64089;51.478;5.692;2024-03-06T04:03:20;43.35;;;15.55;;
42832;SDS011;64089;51.478;5.692;2024-03-06T04:05:46;38.85;;;16.77;;
42832;SDS011;64089;51.478;5.692;2024-03-06T04:08:12;41.72;;;16.00;;
42832;SDS011;64089;51.478;5.692;2024-03-06T04:10:38;35.28;;;15.38;;
42832;SDS011;64089;51.478;5.692;2024-03-06T04:13:04;38.92;;;16.02;;
42832;SDS011;64089;51.478;5.692;2024-03-06T04:15:29;35.22;;;14.80;;
42832;SDS011;64089;51.478;5.692;2024-03-06T04:17:56;34.30;;;14.90;;
42832;SDS011;64089;51.478;5.692;2024-03-06T04:20:21;32.47;;;14.23;;
42832;SDS011;64089;51.478;5.692;2024-03-06T04:22:47;37.10;;;15.48;;
42832;SDS011;64089;51.478;5.692;2024-03-06T04:25:15;31.35;;;14.27;;
42832;SDS011;64089;51.478;5.692;2024-03-06T04:27:40;28.67;;;13.50;;
42832;SDS011;64089;51.478;5.692;2024-03-06T04:30:06;28.83;;;13.25;;
42832;SDS011;64089;51.478;5.692;2024-03-06T04:32:32;33.15;;;13.77;;
42832;SDS011;64089;51.478;5.692;2024-03-06T04:34:58;31.85;;;13.23;;
42832;SDS011;64089;51.478;5.692;2024-03-06T04:37:24;27.00;;;12.50;;
42832;SDS011;64089;51.478;5.692;2024-03-06T04:39:51;25.33;;;13.23;;
42832;SDS011;64089;51.478;5.692;2024-03-06T04:42:17;26.17;;;12.32;;
42832;SDS011;64089;51.478;5.692;2024-03-06T04:44:44;22.58;;;12.45;;
42832;SDS011;64089;51.478;5.692;2024-03-06T04:47:10;25.85;;;13.05;;
42832;SDS011;64089;51.478;5.692;2024-03-06T04:49:36;26.92;;;12.43;;
42832;SDS011;64089;51.478;5.692;2024-03-06T04:52:02;28.25;;;12.73;;
42832;SDS011;64089;51.478;5.692;2024-03-06T04:54:28;27.05;;;12.23;;
42832;SDS011;64089;51.478;5.692;2024-03-06T04:56:54;25.52;;;12.70;;
42832;SDS011;64089;51.478;5.692;2024-03-06T04:59:20;26.05;;;12.50;;
42832;SDS011;64089;51.478;5.692;2024-03-06T05:01:46;28.02;;;14.07;;
42832;SDS011;64089;51.478;5.692;2024-03-06T05:04:12;29.42;;;13.82;;
42832;SDS011;64089;51.478;5.692;2024-03-06T05:06:37;30.63;;;14.13;;
42832;SDS011;64089;51.478;5.692;2024-03-06T05:09:03;30.17;;;13.88;;
42832;SDS011;64089;51.478;5.692;2024-03-06T05:11:30;25.98;;;12.63;;
42832;SDS011;64089;51.478;5.692;2024-03-06T05:13:59;29.00;;;12.73;;
42832;SDS011;64089;51.478;5.692;2024-03-06T05:16:25;26.95;;;12.10;;
42832;SDS011;64089;51.478;5.692;2024-03-06T05:18:51;28.52;;;12.95;;
42832;SDS011;64089;51.478;5.692;2024-03-06T05:21:17;28.95;;;11.93;;
42832;SDS011;64089;51.478;5.692;2024-03-06T05:23:43;22.48;;;11.48;;
42832;SDS011;64089;51.478;5.692;2024-03-06T05:26:09;29.20;;;12.98;;
42832;SDS011;64089;51.478;5.692;2024-03-06T05:28:35;30.92;;;12.48;;
42832;SDS011;64089;51.478;5.692;2024-03-06T05:31:00;30.92;;;13.63;;
42832;SDS011;64089;51.478;5.692;2024-03-06T05:33:26;30.50;;;13.55;;
42832;SDS011;64089;51.478;5.692;2024-03-06T05:35:54;31.58;;;12.30;;
42832;SDS011;64089;51.478;5.692;2024-03-06T05:38:19;28.75;;;14.05;;
42832;SDS011;64089;51.478;5.692;2024-03-06T05:40:47;34.25;;;14.40;;
42832;SDS011;64089;51.478;5.692;2024-03-06T05:43:12;28.60;;;13.98;;
42832;SDS011;64089;51.478;5.692;2024-03-06T05:45:38;26.98;;;13.32;;
42832;SDS011;64089;51.478;5.692;2024-03-06T05:48:04;31.17;;;13.63;;
42832;SDS011;64089;51.478;5.692;2024-03-06T05:50:30;24.58;;;13.20;;
42832;SDS011;64089;51.478;5.692;2024-03-06T05:52:57;30.65;;;13.02;;
42832;SDS011;64089;51.478;5.692;2024-03-06T05:55:22;26.45;;;12.32;;
42832;SDS011;64089;51.478;5.692;2024-03-06T05:57:48;35.00;;;13.13;;
42832;SDS011;64089;51.478;5.692;2024-03-06T06:00:14;29.90;;;12.63;;
42832;SDS011;64089;51.478;5.692;2024-03-06T06:02:43;28.20;;;13.50;;
42832;SDS011;64089;51.478;5.692;2024-03-06T06:05:10;22.35;;;12.45;;
42832;SDS011;64089;51.478;5.692;2024-03-06T06:07:35;27.63;;;12.32;;
42832;SDS011;64089;51.478;5.692;2024-03-06T06:10:03;27.38;;;12.82;;
42832;SDS011;64089;51.478;5.692;2024-03-06T06:12:31;30.90;;;13.02;;
42832;SDS011;64089;51.478;5.692;2024-03-06T06:14:56;22.63;;;11.90;;
42832;SDS011;64089;51.478;5.692;2024-03-06T06:17:22;22.63;;;11.60;;
42832;SDS011;64089;51.478;5.692;2024-03-06T06:19:48;28.67;;;12.20;;
42832;SDS011;64089;51.478;5.692;2024-03-06T06:22:13;28.60;;;12.98;;
42832;SDS011;64089;51.478;5.692;2024-03-06T06:24:39;23.15;;;11.85;;
42832;SDS011;64089;51.478;5.692;2024-03-06T06:27:05;25.15;;;12.15;;
42832;SDS011;64089;51.478;5.692;2024-03-06T06:29:31;31.27;;;13.40;;
42832;SDS011;64089;51.478;5.692;2024-03-06T06:31:57;26.88;;;12.70;;
42832;SDS011;64089;51.478;5.692;2024-03-06T06:34:22;24.10;;;11.85;;
42832;SDS011;64089;51.478;5.692;2024-03-06T06:36:52;23.92;;;11.65;;
42832;SDS011;64089;51.478;5.692;2024-03-06T06:39:18;22.45;;;12.23;;
42832;SDS011;64089;51.478;5.692;2024-03-06T06:41:44;23.50;;;12.00;;
42832;SDS011;64089;51.478;5.692;2024-03-06T06:44:09;21.15;;;11.98;;
42832;SDS011;64089;51.478;5.692;2024-03-06T06:46:35;24.17;;;12.48;;
42832;SDS011;64089;51.478;5.692;2024-03-06T06:49:01;23.67;;;11.63;;
42832;SDS011;64089;51.478;5.692;2024-03-06T06:51:26;26.15;;;11.57;;
42832;SDS011;64089;51.478;5.692;2024-03-06T06:53:52;27.35;;;12.07;;
42832;SDS011;64089;51.478;5.692;2024-03-06T06:56:17;23.80;;;12.18;;
42832;SDS011;64089;51.478;5.692;2024-03-06T06:58:43;24.40;;;11.32;;
42832;SDS011;64089;51.478;5.692;2024-03-06T07:01:09;24.48;;;11.85;;
42832;SDS011;64089;51.478;5.692;2024-03-06T07:03:35;21.17;;;10.90;;
42832;SDS011;64089;51.478;5.692;2024-03-06T07:06:00;19.33;;;10.38;;
42832;SDS011;64089;51.478;5.692;2024-03-06T07:08:28;28.38;;;12.15;;
42832;SDS011;64089;51.478;5.692;2024-03-06T07:10:54;21.13;;;10.00;;
42832;SDS011;64089;51.478;5.692;2024-03-06T07:13:20;21.23;;;10.52;;
42832;SDS011;64089;51.478;5.692;2024-03-06T07:15:46;21.20;;;11.52;;
42832;SDS011;64089;51.478;5.692;2024-03-06T07:18:11;19.80;;;10.48;;
42832;SDS011;64089;51.478;5.692;2024-03-06T07:20:39;20.65;;;10.90;;
42832;SDS011;64089;51.478;5.692;2024-03-06T07:23:05;21.65;;;10.82;;
42832;SDS011;64089;51.478;5.692;2024-03-06T07:25:31;18.45;;;9.77;;
42832;SDS011;64089;51.478;5.692;2024-03-06T07:27:57;90.35;;;39.50;;
42832;SDS011;64089;51.478;5.692;2024-03-06T07:30:23;72.50;;;33.13;;
42832;SDS011;64089;51.478;5.692;2024-03-06T07:32:48;90.68;;;37.20;;
42832;SDS011;64089;51.478;5.692;2024-03-06T07:35:14;95.80;;;39.33;;
42832;SDS011;64089;51.478;5.692;2024-03-06T07:37:40;82.93;;;36.85;;
42832;SDS011;64089;51.478;5.692;2024-03-06T07:40:06;25.92;;;13.93;;
42832;SDS011;64089;51.478;5.692;2024-03-06T07:42:34;25.55;;;12.70;;
42832;SDS011;64089;51.478;5.692;2024-03-06T07:45:00;24.95;;;12.48;;
42832;SDS011;64089;51.478;5.692;2024-03-06T07:47:25;25.67;;;12.32;;
42832;SDS011;64089;51.478;5.692;2024-03-06T07:49:51;26.40;;;12.13;;
42832;SDS011;64089;51.478;5.692;2024-03-06T07:52:17;20.20;;;11.80;;
42832;SDS011;64089;51.478;5.692;2024-03-06T07:54:43;25.83;;;12.23;;
42832;SDS011;64089;51.478;5.692;2024-03-06T07:57:08;26.95;;;13.05;;
42832;SDS011;64089;51.478;5.692;2024-03-06T07:59:35;32.25;;;14.18;;
42832;SDS011;64089;51.478;5.692;2024-03-06T08:02:00;91.40;;;38.70;;
42832;SDS011;64089;51.478;5.692;2024-03-06T08:04:26;93.15;;;39.83;;
42832;SDS011;64089;51.478;5.692;2024-03-06T08:06:52;87.30;;;35.45;;
42832;SDS011;64089;51.478;5.692;2024-03-06T08:09:17;82.88;;;38.08;;
42832;SDS011;64089;51.478;5.692;2024-03-06T08:11:44;59.10;;;26.65;;
42832;SDS011;64089;51.478;5.692;2024-03-06T08:14:10;23.83;;;12.60;;
42832;SDS011;64089;51.478;5.692;2024-03-06T08:16:36;18.83;;;10.98;;
42832;SDS011;64089;51.478;5.692;2024-03-06T08:19:02;34.20;;;11.73;;
42832;SDS011;64089;51.478;5.692;2024-03-06T08:21:28;17.58;;;10.07;;
42832;SDS011;64089;51.478;5.692;2024-03-06T08:23:53;17.23;;;11.00;;
42832;SDS011;64089;51.478;5.692;2024-03-06T08:26:19;21.25;;;9.52;;
42832;SDS011;64089;51.478;5.692;2024-03-06T08:28:45;15.93;;;10.32;;
42832;SDS011;64089;51.478;5.692;2024-03-06T08:31:10;19.17;;;10.07;;
42832;SDS011;64089;51.478;5.692;2024-03-06T08:33:36;19.42;;;10.55;;
42832;SDS011;64089;51.478;5.692;2024-03-06T08:36:02;20.70;;;10.95;;
42832;SDS011;64089;51.478;5.692;2024-03-06T08:38:28;19.48;;;10.55;;
42832;SDS011;64089;51.478;5.692;2024-03-06T08:40:54;18.98;;;11.18;;
42832;SDS011;64089;51.478;5.692;2024-03-06T08:43:19;17.02;;;9.85;;
42832;SDS011;64089;51.478;5.692;2024-03-06T08:45:45;18.65;;;10.50;;
42832;SDS011;64089;51.478;5.692;2024-03-06T08:48:11;16.73;;;10.45;;
42832;SDS011;64089;51.478;5.692;2024-03-06T08:53:04;19.15;;;11.60;;
42832;SDS011;64089;51.478;5.692;2024-03-06T08:55:30;84.00;;;37.35;;
42832;SDS011;64089;51.478;5.692;2024-03-06T08:57:55;64.05;;;28.77;;
42832;SDS011;64089;51.478;5.692;2024-03-06T09:00:21;193.43;;;74.57;;
42832;SDS011;64089;51.478;5.692;2024-03-06T09:02:46;55.88;;;26.13;;
42832;SDS011;64089;51.478;5.692;2024-03-06T09:05:12;32.20;;;13.32;;
42832;SDS011;64089;51.478;5.692;2024-03-06T09:07:41;20.52;;;10.32;;
42832;SDS011;64089;51.478;5.692;2024-03-06T09:10:07;21.52;;;10.80;;
42832;SDS011;64089;51.478;5.692;2024-03-06T09:12:33;17.52;;;9.93;;
42832;SDS011;64089;51.478;5.692;2024-03-06T09:14:59;23.08;;;10.98;;
42832;SDS011;64089;51.478;5.692;2024-03-06T09:17:26;17.27;;;10.20;;
42832;SDS011;64089;51.478;5.692;2024-03-06T09:19:52;15.40;;;9.70;;
42832;SDS011;64089;51.478;5.692;2024-03-06T09:22:18;20.23;;;10.38;;
42832;SDS011;64089;51.478;5.692;2024-03-06T09:24:44;25.77;;;10.85;;
42832;SDS011;64089;51.478;5.692;2024-03-06T09:27:10;20.63;;;11.27;;
42832;SDS011;64089;51.478;5.692;2024-03-06T09:29:36;19.02;;;10.45;;
42832;SDS011;64089;51.478;5.692;2024-03-06T09:32:01;22.55;;;11.05;;
42832;SDS011;64089;51.478;5.692;2024-03-06T09:34:27;23.88;;;11.80;;
42832;SDS011;64089;51.478;5.692;2024-03-06T09:36:52;19.83;;;10.52;;
42832;SDS011;64089;51.478;5.692;2024-03-06T09:39:19;20.48;;;11.00;;
42832;SDS011;64089;51.478;5.692;2024-03-06T09:41:49;20.25;;;10.88;;
42832;SDS011;64089;51.478;5.692;2024-03-06T09:44:15;19.13;;;9.90;;
42832;SDS011;64089;51.478;5.692;2024-03-06T09:46:42;16.70;;;9.38;;
42832;SDS011;64089;51.478;5.692;2024-03-06T09:49:12;18.35;;;8.65;;
42832;SDS011;64089;51.478;5.692;2024-03-06T09:51:41;15.30;;;9.10;;
42832;SDS011;64089;51.478;5.692;2024-03-06T09:54:17;13.00;;;7.68;;
42832;SDS011;64089;51.478;5.692;2024-03-06T09:56:46;9.95;;;7.68;;
42832;SDS011;64089;51.478;5.692;2024-03-06T09:59:12;13.73;;;7.68;;
42832;SDS011;64089;51.478;5.692;2024-03-06T10:01:40;18.65;;;7.80;;
42832;SDS011;64089;51.478;5.692;2024-03-06T10:06:46;13.60;;;7.63;;
42832;SDS011;64089;51.478;5.692;2024-03-06T10:09:16;14.35;;;6.55;;
42832;SDS011;64089;51.478;5.692;2024-03-06T10:11:42;14.15;;;6.05;;
42832;SDS011;64089;51.478;5.692;2024-03-06T10:14:07;12.75;;;6.57;;
42832;SDS011;64089;51.478;5.692;2024-03-06T10:16:35;11.38;;;6.53;;
42832;SDS011;64089;51.478;5.692;2024-03-06T10:19:17;13.65;;;6.50;;
42832;SDS011;64089;51.478;5.692;2024-03-06T10:24:16;11.55;;;6.05;;
42832;SDS011;64089;51.478;5.692;2024-03-06T10:26:52;12.30;;;5.80;;
42832;SDS011;64089;51.478;5.692;2024-03-06T10:29:21;13.10;;;6.15;;
42832;SDS011;64089;51.478;5.692;2024-03-06T10:31:57;8.77;;;5.00;;
42832;SDS011;64089;51.478;5.692;2024-03-06T10:34:24;10.75;;;6.22;;
42832;SDS011;64089;51.478;5.692;2024-03-06T10:36:53;9.63;;;4.43;;
42832;SDS011;64089;51.478;5.692;2024-03-06T10:39:23;5.90;;;4.20;;
42832;SDS011;64089;51.478;5.692;2024-03-06T10:41:53;7.80;;;3.88;;
42832;SDS011;64089;51.478;5.692;2024-03-06T10:44:23;7.38;;;4.28;;
42832;SDS011;64089;51.478;5.692;2024-03-06T10:47:04;9.13;;;4.13;;
42832;SDS011;64089;51.478;5.692;2024-03-06T10:49:31;6.97;;;3.70;;
42832;SDS011;64089;51.478;5.692;2024-03-06T10:52:03;7.10;;;3.00;;
42832;SDS011;64089;51.478;5.692;2024-03-06T10:54:32;6.40;;;3.70;;
42832;SDS011;64089;51.478;5.692;2024-03-06T10:56:59;4.95;;;3.30;;
42832;SDS011;64089;51.478;5.692;2024-03-06T10:59:26;5.70;;;2.80;;
42832;SDS011;64089;51.478;5.692;2024-03-06T11:01:56;5.30;;;3.03;;
42832;SDS011;64089;51.478;5.692;2024-03-06T11:04:23;5.85;;;3.67;;
42832;SDS011;64089;51.478;5.692;2024-03-06T11:06:50;7.13;;;4.20;;
42832;SDS011;64089;51.478;5.692;2024-03-06T11:09:16;4.63;;;3.08;;
42832;SDS011;64089;51.478;5.692;2024-03-06T11:11:49;5.88;;;3.17;;
42832;SDS011;64089;51.478;5.692;2024-03-06T11:14:16;5.05;;;3.70;;
42832;SDS011;64089;51.478;5.692;2024-03-06T11:23:01;7.63;;;3.95;;
42832;SDS011;64089;51.478;5.692;2024-03-06T11:33:41;8.90;;;5.18;;
42832;SDS011;64089;51.478;5.692;2024-03-06T11:36:20;9.13;;;3.92;;
42832;SDS011;64089;51.478;5.692;2024-03-06T11:43:56;8.63;;;4.63;;
42832;SDS011;64089;51.478;5.692;2024-03-06T11:49:21;8.35;;;3.88;;
42832;SDS011;64089;51.478;5.692;2024-03-06T11:51:53;7.18;;;4.22;;
42832;SDS011;64089;51.478;5.692;2024-03-06T11:54:20;9.90;;;4.65;;
42832;SDS011;64089;51.478;5.692;2024-03-06T11:56:49;7.85;;;4.05;;
42832;SDS011;64089;51.478;5.692;2024-03-06T11:59:20;6.53;;;3.75;;
42832;SDS011;64089;51.478;5.692;2024-03-06T12:02:04;4.10;;;2.97;;
42832;SDS011;64089;51.478;5.692;2024-03-06T12:04:31;9.20;;;3.55;;
42832;SDS011;64089;51.478;5.692;2024-03-06T12:06:58;6.25;;;2.92;;
42832;SDS011;64089;51.478;5.692;2024-03-06T12:09:25;7.40;;;3.05;;
42832;SDS011;64089;51.478;5.692;2024-03-06T12:11:51;10.43;;;3.78;;
42832;SDS011;64089;51.478;5.692;2024-03-06T12:14:18;3.90;;;2.90;;
42832;SDS011;64089;51.478;5.692;2024-03-06T12:16:54;9.85;;;3.33;;
42832;SDS011;64089;51.478;5.692;2024-03-06T12:19:32;6.13;;;4.28;;
42832;SDS011;64089;51.478;5.692;2024-03-06T12:22:01;4.00;;;2.95;;
42832;SDS011;64089;51.478;5.692;2024-03-06T12:24:30;5.43;;;2.90;;
42832;SDS011;64089;51.478;5.692;2024-03-06T12:27:03;6.05;;;3.03;;
42832;SDS011;64089;51.478;5.692;2024-03-06T12:29:30;5.72;;;3.65;;
42832;SDS011;64089;51.478;5.692;2024-03-06T12:31:57;5.85;;;3.47;;
42832;SDS011;64089;51.478;5.692;2024-03-06T12:34:29;4.93;;;3.08;;
42832;SDS011;64089;51.478;5.692;2024-03-06T12:36:56;4.95;;;2.97;;
42832;SDS011;64089;51.478;5.692;2024-03-06T12:39:23;5.30;;;3.22;;
42832;SDS011;64089;51.478;5.692;2024-03-06T12:41:52;7.93;;;3.55;;
42832;SDS011;64089;51.478;5.692;2024-03-06T12:44:20;7.43;;;3.67;;
42832;SDS011;64089;51.478;5.692;2024-03-06T12:46:46;6.18;;;3.58;;
42832;SDS011;64089;51.478;5.692;2024-03-06T12:49:11;6.65;;;3.60;;
42832;SDS011;64089;51.478;5.692;2024-03-06T12:51:37;6.30;;;3.90;;
42832;SDS011;64089;51.478;5.692;2024-03-06T12:54:06;8.55;;;3.25;;
42832;SDS011;64089;51.478;5.692;2024-03-06T12:56:33;4.82;;;3.20;;
42832;SDS011;64089;51.478;5.692;2024-03-06T12:58:59;5.03;;;3.25;;
42832;SDS011;64089;51.478;5.692;2024-03-06T13:01:24;7.00;;;3.40;;
42832;SDS011;64089;51.478;5.692;2024-03-06T13:03:50;5.22;;;3.50;;
42832;SDS011;64089;51.478;5.692;2024-03-06T13:06:15;6.03;;;3.55;;
42832;SDS011;64089;51.478;5.692;2024-03-06T13:08:41;5.95;;;3.83;;
42832;SDS011;64089;51.478;5.692;2024-03-06T13:11:06;8.18;;;3.65;;
42832;SDS011;64089;51.478;5.692;2024-03-06T13:13:34;5.55;;;3.25;;
42832;SDS011;64089;51.478;5.692;2024-03-06T13:16:00;6.55;;;3.33;;
42832;SDS011;64089;51.478;5.692;2024-03-06T13:18:25;4.47;;;3.17;;
42832;SDS011;64089;51.478;5.692;2024-03-06T13:20:51;6.75;;;3.30;;
42832;SDS011;64089;51.478;5.692;2024-03-06T13:23:17;6.68;;;3.13;;
42832;SDS011;64089;51.478;5.692;2024-03-06T13:25:43;5.68;;;2.80;;
42832;SDS011;64089;51.478;5.692;2024-03-06T13:28:10;3.53;;;2.75;;
42832;SDS011;64089;51.478;5.692;2024-03-06T13:30:36;4.07;;;2.97;;
42832;SDS011;64089;51.478;5.692;2024-03-06T13:33:04;8.57;;;2.70;;
42832;SDS011;64089;51.478;5.692;2024-03-06T13:35:30;4.72;;;3.13;;
42832;SDS011;64089;51.478;5.692;2024-03-06T13:37:55;4.25;;;3.13;;
42832;SDS011;64089;51.478;5.692;2024-03-06T13:40:21;6.53;;;3.10;;
42832;SDS011;64089;51.478;5.692;2024-03-06T13:42:47;4.93;;;2.85;;
42832;SDS011;64089;51.478;5.692;2024-03-06T13:45:12;4.13;;;2.97;;
42832;SDS011;64089;51.478;5.692;2024-03-06T13:47:39;5.80;;;2.72;;
42832;SDS011;64089;51.478;5.692;2024-03-06T13:50:07;3.10;;;2.35;;
42832;SDS011;64089;51.478;5.692;2024-03-06T13:52:34;3.75;;;2.63;;
42832;SDS011;64089;51.478;5.692;2024-03-06T13:54:59;4.43;;;2.75;;
42832;SDS011;64089;51.478;5.692;2024-03-06T13:57:29;3.25;;;2.70;;
42832;SDS011;64089;51.478;5.692;2024-03-06T14:00:08;7.85;;;2.78;;
42832;SDS011;64089;51.478;5.692;2024-03-06T14:02:38;5.22;;;2.58;;
42832;SDS011;64089;51.478;5.692;2024-03-06T14:05:05;4.78;;;2.85;;
42832;SDS011;64089;51.478;5.692;2024-03-06T14:07:31;3.78;;;2.72;;
42832;SDS011;64089;51.478;5.692;2024-03-06T14:09:58;4.53;;;2.95;;
42832;SDS011;64089;51.478;5.692;2024-03-06T14:12:24;5.65;;;2.97;;
42832;SDS011;64089;51.478;5.692;2024-03-06T14:14:50;5.20;;;3.47;;
42832;SDS011;64089;51.478;5.692;2024-03-06T14:17:15;5.63;;;2.88;;
42832;SDS011;64089;51.478;5.692;2024-03-06T14:19:41;3.92;;;3.00;;
42832;SDS011;64089;51.478;5.692;2024-03-06T14:22:07;6.78;;;3.38;;
42832;SDS011;64089;51.478;5.692;2024-03-06T14:24:33;5.25;;;3.47;;
42832;SDS011;64089;51.478;5.692;2024-03-06T14:27:00;6.85;;;4.10;;
42832;SDS011;64089;51.478;5.692;2024-03-06T14:29:26;5.38;;;3.53;;
42832;SDS011;64089;51.478;5.692;2024-03-06T14:31:53;5.10;;;3.35;;
42832;SDS011;64089;51.478;5.692;2024-03-06T14:34:19;7.65;;;3.90;;
42832;SDS011;64089;51.478;5.692;2024-03-06T14:36:46;6.32;;;3.70;;
42832;SDS011;64089;51.478;5.692;2024-03-06T14:39:11;8.75;;;4.70;;
42832;SDS011;64089;51.478;5.692;2024-03-06T14:41:38;6.38;;;4.18;;
42832;SDS011;64089;51.478;5.692;2024-03-06T14:44:07;6.53;;;4.45;;
42832;SDS011;64089;51.478;5.692;2024-03-06T14:46:33;7.43;;;4.65;;
42832;SDS011;64089;51.478;5.692;2024-03-06T14:48:59;6.82;;;4.93;;
42832;SDS011;64089;51.478;5.692;2024-03-06T14:51:27;6.13;;;4.45;;
42832;SDS011;64089;51.478;5.692;2024-03-06T14:53:53;7.75;;;4.82;;
42832;SDS011;64089;51.478;5.692;2024-03-06T14:56:18;8.15;;;4.47;;